Sydney, Australia
Current Conditions -  °F | °C
As of 1:00 PM on Wednesday 22 Oct 2014 (Local Time) from YSSY Reporting Station
Scattered Clouds Scattered Clouds  
Wind Chill: 70°   Ceiling: Unl
Heat Index: 70°   Visibility: 6mi
Dew Point: 50°   Wind: 18mph
Humidity: 49%   Direction: 40°NE
Pressure: 30.24"   Gusts: NA
Location:  33.87°S, 151.21°E
Report Text: YSSY 220200Z 04016KT 9999 SCT035 21/10 Q1024 NOSIG
Loading
Personal Weather Stations






























Interactive Weather Map
Tropical Storm Tracking
New forecast layout! Learn more

10-Day Weather Forecast

Advertisements
Track Severe Weather on mobile